Main page
METAR-TAF:

METAR-TAF

Airports :

Florence Airport

Florence, Italy

latitude: 43-48N, longitude: 011-12E, elevation: 40 m

Current weather observation

The report was made 33 minutes ago, at 02:50 UTC
Wind 2 kt from variable directions
Temperature 19°C
Humidity 83%
Pressure 1014 hPa
Visibility 10 km or more
no clouds below 1500 m and no cumulonimbus

METAR: LIRQ 200250Z VRB02KT CAVOK 19/16 Q1014

Time: 05:23 (03:23 UTC)

Forecast

The report was made 4 hours and 23 minutes ago, at 23:00 UTC
Forecast valid from 20 at 00 UTC to 20 at 24 UTC
Wind 10 kt from the Northeast
Visibility 10 km or more
Scattered clouds at a height of 5000 ft

TAF: LIRQ 192300Z 2000/2024 05010KT 9999 SCT050

Weather observations and forecasts of more than 4000 airports (METAR and TAF reports).

The available stations are represented by yellow and red dots on the map.

Hover mouse over dot to see the name of the station.

Then click to see weather observations and forecasts.

To change the map : click on the green buttons with a black cross to zoom in, on the green button with a dash to zoom out, or on the green arrows for adjacent maps.


METAR-TAF: